Time;durP1;ratioP1;P1;durP2;ratioP2;P2;SDS_P1;SDS_P2;PMS_P1;PMS_P2;Temp;Humidity;BMP_temperature;BMP_pressure;BME280_temperature;BME280_humidity;BME280_pressure;Samples;Min_cycle;Max_cycle;Signal;HPM_P1;HPM_P2
2022/01/15 00:01:27;;;;;;;;;;;3.60;99.90;;;;;;5030646;28;19913;-64
2022/01/15 00:03:53;;;;;;;;;;;3.60;99.90;;;;;;5030546;28;19976;-63
2022/01/15 00:06:18;;;;;;;;;;;3.60;99.90;;;;;;5013825;28;19914;-64
2022/01/15 00:08:44;;;;;;;;;;;3.60;99.90;;;;;;5033698;28;20301;-63
2022/01/15 00:11:10;;;;;;;;;;;3.60;99.90;;;;;;5031149;28;19913;-63
2022/01/15 00:13:36;;;;;;;;;;;3.60;99.90;;;;;;5030305;28;19953;-63
2022/01/15 00:16:15;;;;;;;;;;;3.60;99.90;;;;;;5030352;28;20347;-63
2022/01/15 00:18:44;;;;;;;;;;;3.60;99.90;;;;;;5029814;28;19921;-63
2022/01/15 00:21:10;;;;;;;;;;;3.60;99.90;;;;;;5014890;28;19991;-64
2022/01/15 00:23:36;;;;;;;;;;;3.60;99.90;;;;;;5032065;28;19917;-63
2022/01/15 00:26:02;;;;;;;;;;;3.50;99.90;;;;;;5030318;28;19917;-64
2022/01/15 00:28:27;;;;;;;;;;;3.50;99.90;;;;;;5030183;28;20393;-60
2022/01/15 00:30:53;;;;;;;;;;;3.50;99.90;;;;;;5030102;28;19921;-64
2022/01/15 00:33:18;;;;;;;;;;;3.50;99.90;;;;;;5029425;28;19924;-63
2022/01/15 00:35:44;;;;;;;;;;;3.50;99.90;;;;;;5033805;28;20011;-64
2022/01/15 00:38:09;;;;;;;;;;;3.50;99.90;;;;;;5030099;28;19913;-64
2022/01/15 00:40:35;;;;;;;;;;;3.50;99.90;;;;;;5029406;28;20382;-63
2022/01/15 00:43:00;;;;;;;;;;;3.50;99.90;;;;;;5029386;28;19991;-64
2022/01/15 00:45:31;;;;;;;;;;;3.40;99.90;;;;;;5029624;28;20444;-63
2022/01/15 00:47:57;;;;;;;;;;;3.50;99.90;;;;;;5031197;28;19910;-63
2022/01/15 00:50:22;;;;;;;;;;;3.40;99.90;;;;;;5031280;28;19910;-64
2022/01/15 00:52:48;;;;;;;;;;;3.30;99.90;;;;;;5029562;28;19921;-65
2022/01/15 00:55:14;;;;;;;;;;;3.30;99.90;;;;;;5029691;28;20384;-64
2022/01/15 00:57:40;;;;;;;;;;;3.30;99.90;;;;;;5030010;28;19913;-63
2022/01/15 01:00:07;;;;;;;;;;;3.30;99.90;;;;;;5030466;28;20008;-64
2022/01/15 01:02:32;;;;;;;;;;;3.20;99.90;;;;;;5031695;28;19934;-63
2022/01/15 01:04:58;;;;;;;;;;;3.20;99.90;;;;;;5029425;28;19917;-64
2022/01/15 01:07:23;;;;;;;;;;;3.20;99.90;;;;;;5029383;28;19913;-66
2022/01/15 01:10:04;;;;;;;;;;;3.20;99.90;;;;;;5029277;28;19913;-63
2022/01/15 01:23:18;;;;;;;;;;;3.10;99.90;;;;;;5031766;28;20419;-64
2022/01/15 01:25:46;;;;;;;;;;;3.10;99.90;;;;;;5028835;28;19910;-65
2022/01/15 01:28:29;;;;;;;;;;;3.10;99.90;;;;;;5029337;28;19952;-63
2022/01/15 01:31:08;;;;;;;;;;;3.10;99.90;;;;;;5028208;28;20421;-62
2022/01/15 01:33:38;;;;;;;;;;;3.00;99.90;;;;;;5029384;28;19947;-64
2022/01/15 01:38:38;;;;;;;;;;;2.90;99.90;;;;;;5031215;28;20406;-64
2022/01/15 01:41:06;;;;;;;;;;;2.90;99.90;;;;;;5028460;28;19916;-64
2022/01/15 01:48:38;;;;;;;;;;;2.90;99.90;;;;;;5029137;28;20408;-64
2022/01/15 01:51:06;;;;;;;;;;;2.90;99.90;;;;;;5029790;28;19909;-63
2022/01/15 01:53:32;;;;;;;;;;;2.90;99.90;;;;;;5031118;28;20285;-65
2022/01/15 01:55:58;;;;;;;;;;;2.90;99.90;;;;;;5028171;28;20365;-66
2022/01/15 01:58:23;;;;;;;;;;;2.80;99.90;;;;;;5028312;28;19914;-63
2022/01/15 02:00:48;;;;;;;;;;;2.80;99.90;;;;;;5028104;28;19916;-64
2022/01/15 02:03:14;;;;;;;;;;;2.70;99.90;;;;;;5028848;28;19925;-64
2022/01/15 02:05:39;;;;;;;;;;;2.70;99.90;;;;;;5031882;28;19909;-64
2022/01/15 02:08:05;;;;;;;;;;;2.80;99.90;;;;;;5028175;28;19963;-64
2022/01/15 02:10:31;;;;;;;;;;;2.70;99.90;;;;;;5028125;28;19925;-63
2022/01/15 02:12:56;;;;;;;;;;;2.80;99.90;;;;;;5028257;28;20373;-63
2022/01/15 02:15:22;;;;;;;;;;;2.70;99.90;;;;;;5027991;28;19917;-65
2022/01/15 02:17:49;;;;;;;;;;;2.80;99.90;;;;;;5030412;28;19921;-65
2022/01/15 02:25:42;;;;;;;;;;;2.70;99.90;;;;;;5028254;28;20028;-64
2022/01/15 02:28:08;;;;;;;;;;;2.70;99.90;;;;;;5028173;28;19913;-63
2022/01/15 02:30:33;;;;;;;;;;;2.70;99.90;;;;;;5027658;28;19928;-63
2022/01/15 02:32:59;;;;;;;;;;;2.70;99.90;;;;;;5029947;28;19916;-65
2022/01/15 02:35:24;;;;;;;;;;;2.70;99.90;;;;;;5029424;28;19925;-63
2022/01/15 02:37:50;;;;;;;;;;;2.70;99.90;;;;;;5027888;28;20292;-65
2022/01/15 02:40:15;;;;;;;;;;;2.60;99.90;;;;;;5028121;28;19917;-62
2022/01/15 02:42:41;;;;;;;;;;;2.60;99.90;;;;;;5027813;28;19991;-61
2022/01/15 02:45:08;;;;;;;;;;;2.60;99.90;;;;;;5028516;28;19960;-64
2022/01/15 02:50:21;;;;;;;;;;;2.50;99.90;;;;;;5031069;28;19920;-63
2022/01/15 02:52:47;;;;;;;;;;;2.50;99.90;;;;;;5027482;28;19909;-65
2022/01/15 02:55:12;;;;;;;;;;;2.50;99.90;;;;;;5030398;28;19913;-64
2022/01/15 02:57:38;;;;;;;;;;;2.50;99.90;;;;;;5034256;28;20352;-63
2022/01/15 03:00:04;;;;;;;;;;;2.50;99.90;;;;;;5035541;28;20373;-63
2022/01/15 03:02:32;;;;;;;;;;;2.50;99.90;;;;;;5036517;28;20261;-64
2022/01/15 03:04:57;;;;;;;;;;;2.40;99.90;;;;;;5034044;28;19963;-64
2022/01/15 03:07:23;;;;;;;;;;;2.40;99.90;;;;;;5034276;28;20276;-63
2022/01/15 03:09:48;;;;;;;;;;;2.40;99.90;;;;;;5034357;28;19916;-63
2022/01/15 03:12:14;;;;;;;;;;;2.40;99.90;;;;;;5034147;28;19912;-66
2022/01/15 03:14:39;;;;;;;;;;;2.40;99.90;;;;;;5037439;28;19909;-65
2022/01/15 03:17:05;;;;;;;;;;;2.40;99.90;;;;;;5033789;28;19916;-64
2022/01/15 03:19:30;;;;;;;;;;;2.40;99.90;;;;;;5034041;28;20341;-64
2022/01/15 03:21:56;;;;;;;;;;;2.40;99.90;;;;;;5034352;28;19913;-64
2022/01/15 03:24:21;;;;;;;;;;;2.40;99.90;;;;;;5033641;28;19926;-65
2022/01/15 03:26:47;;;;;;;;;;;2.50;99.90;;;;;;5036368;28;19909;-64
2022/01/15 03:29:12;;;;;;;;;;;2.40;99.90;;;;;;5034089;28;19916;-63
2022/01/15 03:31:38;;;;;;;;;;;2.40;99.90;;;;;;5034195;28;19921;-65
2022/01/15 03:34:03;;;;;;;;;;;2.40;99.90;;;;;;5034202;28;19913;-65
2022/01/15 03:36:29;;;;;;;;;;;2.50;99.90;;;;;;5033759;28;19914;-63
2022/01/15 03:38:54;;;;;;;;;;;2.40;99.90;;;;;;5036393;28;19915;-64
2022/01/15 03:41:20;;;;;;;;;;;2.40;99.90;;;;;;5035114;28;19909;-64
2022/01/15 03:43:45;;;;;;;;;;;2.40;99.90;;;;;;5032915;28;19921;-64
2022/01/15 03:46:11;;;;;;;;;;;2.40;99.90;;;;;;5033818;28;19968;-62
2022/01/15 03:48:36;;;;;;;;;;;2.40;99.90;;;;;;5034215;28;19919;-62
2022/01/15 03:51:03;;;;;;;;;;;2.40;99.90;;;;;;5035170;28;20301;-64
2022/01/15 03:53:28;;;;;;;;;;;2.50;99.90;;;;;;5036177;28;19955;-63
2022/01/15 03:55:54;;;;;;;;;;;2.50;99.90;;;;;;5033344;28;19917;-60
2022/01/15 03:58:19;;;;;;;;;;;2.50;99.90;;;;;;5033914;28;20436;-65
2022/01/15 04:00:45;;;;;;;;;;;2.50;99.90;;;;;;5033825;28;19990;-64
2022/01/15 04:03:10;;;;;;;;;;;2.50;99.90;;;;;;5018498;28;20411;-64
2022/01/15 04:05:36;;;;;;;;;;;2.40;99.90;;;;;;5036687;28;19909;-66
2022/01/15 04:08:01;;;;;;;;;;;2.40;99.90;;;;;;5029504;28;19921;-64
2022/01/15 04:10:27;;;;;;;;;;;2.40;99.90;;;;;;5029961;28;20385;-62
2022/01/15 04:12:52;;;;;;;;;;;2.40;99.90;;;;;;5030783;28;19983;-63
2022/01/15 04:15:18;;;;;;;;;;;2.40;99.90;;;;;;5030813;28;20428;-64
2022/01/15 04:17:45;;;;;;;;;;;2.40;99.90;;;;;;5032910;28;20401;-63
2022/01/15 04:20:11;;;;;;;;;;;2.30;99.90;;;;;;5031065;28;19913;-65
2022/01/15 04:22:37;;;;;;;;;;;2.30;99.90;;;;;;5030329;28;20285;-64
2022/01/15 04:25:02;;;;;;;;;;;2.40;99.90;;;;;;5029854;28;20297;-63
2022/01/15 04:27:28;;;;;;;;;;;2.40;99.90;;;;;;5030186;28;19917;-64
2022/01/15 04:29:55;;;;;;;;;;;2.40;99.90;;;;;;5032310;28;19917;-64
2022/01/15 04:32:21;;;;;;;;;;;2.30;99.90;;;;;;5031169;28;19919;-63
2022/01/15 04:34:48;;;;;;;;;;;2.40;99.90;;;;;;5030296;28;19909;-63
2022/01/15 04:37:18;;;;;;;;;;;2.40;99.90;;;;;;5029991;28;20377;-61
2022/01/15 04:39:43;;;;;;;;;;;2.30;99.90;;;;;;5014540;28;20443;-64
2022/01/15 04:42:10;;;;;;;;;;;2.30;99.90;;;;;;5030655;28;19972;-64
2022/01/15 04:44:36;;;;;;;;;;;2.30;99.90;;;;;;5033083;28;19917;-64
2022/01/15 04:47:03;;;;;;;;;;;2.30;99.90;;;;;;5029826;28;19909;-64
2022/01/15 04:49:29;;;;;;;;;;;2.30;99.90;;;;;;5029659;28;19913;-62
2022/01/15 04:51:54;;;;;;;;;;;2.30;99.90;;;;;;5029423;28;19913;-65
2022/01/15 04:54:20;;;;;;;;;;;2.30;99.90;;;;;;5029175;28;19914;-64
2022/01/15 04:56:45;;;;;;;;;;;2.30;99.90;;;;;;5033185;28;20466;-62
2022/01/15 04:59:11;;;;;;;;;;;2.30;99.90;;;;;;5030120;28;19952;-64
2022/01/15 05:01:37;;;;;;;;;;;2.20;99.90;;;;;;5029913;28;19910;-64
2022/01/15 05:04:02;;;;;;;;;;;2.20;99.90;;;;;;5029359;28;19929;-64
2022/01/15 05:06:28;;;;;;;;;;;2.20;99.90;;;;;;5029499;28;19936;-64
2022/01/15 05:09:03;;;;;;;;;;;2.20;99.90;;;;;;5031280;28;19913;-65
2022/01/15 05:11:32;;;;;;;;;;;2.10;99.90;;;;;;5031688;28;19920;-65
2022/01/15 05:13:57;;;;;;;;;;;2.10;99.90;;;;;;5029438;28;19936;-63
2022/01/15 05:16:23;;;;;;;;;;;2.10;99.90;;;;;;5029342;28;19917;-63
2022/01/15 05:18:48;;;;;;;;;;;2.00;99.90;;;;;;5028447;28;20015;-63
2022/01/15 05:21:14;;;;;;;;;;;2.00;99.90;;;;;;5029629;28;19940;-63
2022/01/15 05:23:39;;;;;;;;;;;2.00;99.90;;;;;;5031942;28;19928;-65
2022/01/15 05:26:05;;;;;;;;;;;2.00;99.90;;;;;;5029391;28;20495;-65
2022/01/15 05:28:30;;;;;;;;;;;2.00;99.90;;;;;;5029306;28;19917;-64
2022/01/15 05:30:56;;;;;;;;;;;1.90;99.90;;;;;;5028881;28;19958;-64
2022/01/15 05:33:21;;;;;;;;;;;2.00;99.90;;;;;;5029113;28;19918;-64
2022/01/15 05:35:47;;;;;;;;;;;1.90;99.90;;;;;;5031927;28;20000;-63
2022/01/15 05:38:12;;;;;;;;;;;1.90;99.90;;;;;;5029511;28;20007;-64
2022/01/15 05:40:38;;;;;;;;;;;1.90;99.90;;;;;;5029095;28;19924;-66
2022/01/15 05:43:03;;;;;;;;;;;1.90;99.90;;;;;;5028522;28;20007;-65
2022/01/15 05:45:29;;;;;;;;;;;1.90;99.90;;;;;;5029054;28;19914;-63
2022/01/15 05:47:55;;;;;;;;;;;1.90;99.90;;;;;;5030507;28;19948;-64
2022/01/15 05:50:20;;;;;;;;;;;1.90;99.90;;;;;;5029784;28;19976;-63
2022/01/15 05:52:46;;;;;;;;;;;1.90;99.90;;;;;;5028549;28;19913;-64
2022/01/15 05:55:11;;;;;;;;;;;1.90;99.90;;;;;;5028569;28;19917;-63
2022/01/15 05:57:37;;;;;;;;;;;1.90;99.90;;;;;;5028448;28;19920;-65
2022/01/15 06:00:03;;;;;;;;;;;1.90;99.90;;;;;;5030078;28;19988;-64
2022/01/15 06:02:29;;;;;;;;;;;1.90;99.90;;;;;;5030474;28;20401;-64
2022/01/15 06:04:54;;;;;;;;;;;1.90;99.90;;;;;;5028371;28;19920;-64
2022/01/15 06:07:20;;;;;;;;;;;1.90;99.90;;;;;;5028025;28;20381;-63
2022/01/15 06:09:45;;;;;;;;;;;2.00;99.90;;;;;;5028567;28;19940;-65
2022/01/15 06:12:11;;;;;;;;;;;1.90;99.90;;;;;;5028810;28;19920;-65
2022/01/15 06:14:36;;;;;;;;;;;1.80;99.90;;;;;;5029982;28;20274;-65
2022/01/15 06:17:03;;;;;;;;;;;1.80;99.90;;;;;;5027817;28;20344;-65
2022/01/15 06:19:28;;;;;;;;;;;1.80;99.90;;;;;;5028356;28;19967;-65
2022/01/15 06:21:54;;;;;;;;;;;1.80;99.90;;;;;;5027733;28;19921;-64
2022/01/15 06:24:20;;;;;;;;;;;1.80;99.90;;;;;;5028004;28;19975;-63
2022/01/15 06:26:45;;;;;;;;;;;1.80;99.90;;;;;;5030886;28;19909;-64
2022/01/15 06:29:11;;;;;;;;;;;1.80;99.90;;;;;;5028605;28;20004;-62
2022/01/15 06:31:36;;;;;;;;;;;1.80;99.90;;;;;;5027593;28;19917;-64
2022/01/15 06:34:02;;;;;;;;;;;1.70;99.90;;;;;;5012851;28;19917;-64
2022/01/15 06:36:28;;;;;;;;;;;1.70;99.90;;;;;;5027629;28;20337;-64
2022/01/15 06:38:53;;;;;;;;;;;1.70;99.90;;;;;;5030282;28;19909;-64
2022/01/15 06:41:19;;;;;;;;;;;1.70;99.90;;;;;;5028854;28;20391;-63
2022/01/15 06:43:45;;;;;;;;;;;1.70;99.90;;;;;;5027644;28;19948;-64
2022/01/15 06:46:10;;;;;;;;;;;1.70;99.90;;;;;;5027962;28;19913;-64
2022/01/15 06:48:36;;;;;;;;;;;1.70;99.90;;;;;;5027501;28;19940;-64
2022/01/15 06:51:01;;;;;;;;;;;1.70;99.90;;;;;;5029735;28;20285;-64
2022/01/15 06:53:29;;;;;;;;;;;1.80;99.90;;;;;;5029305;28;19916;-64
2022/01/15 06:55:54;;;;;;;;;;;1.80;99.90;;;;;;5027699;28;19924;-63
2022/01/15 06:58:20;;;;;;;;;;;1.70;99.90;;;;;;5027499;28;19917;-64
2022/01/15 07:00:45;;;;;;;;;;;1.70;99.90;;;;;;5012939;28;19940;-65
2022/01/15 07:03:11;;;;;;;;;;;1.70;99.90;;;;;;5010365;28;20011;-63
2022/01/15 07:05:37;;;;;;;;;;;1.70;99.90;;;;;;5030439;28;19915;-62
2022/01/15 07:08:02;;;;;;;;;;;1.70;99.90;;;;;;5027729;28;19917;-63
2022/01/15 07:10:28;;;;;;;;;;;1.70;99.90;;;;;;5027636;28;19917;-62
2022/01/15 07:12:54;;;;;;;;;;;1.80;99.90;;;;;;5027430;28;19917;-64
2022/01/15 07:15:20;;;;;;;;;;;1.70;99.90;;;;;;5027914;28;20293;-63
2022/01/15 07:17:46;;;;;;;;;;;1.70;99.90;;;;;;5030383;28;19925;-63
2022/01/15 07:20:13;;;;;;;;;;;1.70;99.90;;;;;;5028008;28;19913;-64
2022/01/15 07:22:39;;;;;;;;;;;1.70;99.90;;;;;;5027307;28;19913;-64
2022/01/15 07:25:04;;;;;;;;;;;1.70;99.90;;;;;;5027355;28;19913;-62
2022/01/15 07:27:30;;;;;;;;;;;1.70;99.90;;;;;;5027876;28;19913;-62
2022/01/15 07:29:55;;;;;;;;;;;1.80;99.90;;;;;;5029684;28;19913;-63
2022/01/15 07:32:21;;;;;;;;;;;1.80;99.90;;;;;;5028735;28;19956;-62
2022/01/15 07:34:47;;;;;;;;;;;1.80;99.90;;;;;;5027079;28;19909;-62
2022/01/15 07:37:12;;;;;;;;;;;1.80;99.90;;;;;;5027293;28;20250;-63
2022/01/15 07:39:38;;;;;;;;;;;1.70;99.90;;;;;;5027497;28;19970;-64
2022/01/15 07:42:03;;;;;;;;;;;1.70;99.90;;;;;;5030255;28;19921;-63
2022/01/15 07:44:29;;;;;;;;;;;1.70;99.90;;;;;;5032656;28;19917;-63
2022/01/15 07:46:55;;;;;;;;;;;1.70;99.90;;;;;;5029397;28;19913;-62
2022/01/15 07:49:20;;;;;;;;;;;1.70;99.90;;;;;;5028849;28;20441;-61
2022/01/15 07:51:46;;;;;;;;;;;1.70;99.90;;;;;;5029848;28;19917;-60
2022/01/15 07:54:11;;;;;;;;;;;1.70;99.90;;;;;;5031796;28;20396;-61
2022/01/15 07:56:37;;;;;;;;;;;1.70;99.90;;;;;;5020703;28;19916;-62
2022/01/15 07:59:03;;;;;;;;;;;1.70;99.90;;;;;;5032438;28;20013;-62
2022/01/15 08:01:28;;;;;;;;;;;1.80;99.90;;;;;;5032336;28;19919;-64
2022/01/15 08:03:54;;;;;;;;;;;1.80;99.90;;;;;;5029921;28;19943;-65
2022/01/15 08:06:19;;;;;;;;;;;1.80;99.90;;;;;;5031022;28;19920;-63
2022/01/15 08:08:45;;;;;;;;;;;1.80;99.90;;;;;;5033415;28;20374;-65
2022/01/15 08:11:10;;;;;;;;;;;1.80;99.90;;;;;;5030005;28;19959;-65
2022/01/15 08:13:36;;;;;;;;;;;1.80;99.90;;;;;;5030451;28;19920;-65
2022/01/15 08:16:02;;;;;;;;;;;1.80;99.90;;;;;;5030270;28;20277;-64
2022/01/15 08:18:27;;;;;;;;;;;1.90;99.90;;;;;;5029608;28;20385;-65
2022/01/15 08:20:53;;;;;;;;;;;1.90;99.90;;;;;;5029972;28;20297;-65
2022/01/15 08:23:18;;;;;;;;;;;1.90;99.90;;;;;;5005900;28;20016;-66
2022/01/15 08:25:44;;;;;;;;;;;1.90;99.90;;;;;;5025088;28;19916;-64
2022/01/15 08:28:09;;;;;;;;;;;1.90;99.90;;;;;;5022906;28;19913;-65
2022/01/15 08:30:35;;;;;;;;;;;2.00;99.90;;;;;;5024362;28;19921;-66
2022/01/15 08:33:01;;;;;;;;;;;2.00;99.90;;;;;;5022329;28;19921;-65
2022/01/15 08:35:26;;;;;;;;;;;2.00;99.90;;;;;;5026007;28;20569;-66
2022/01/15 08:37:54;;;;;;;;;;;2.10;99.90;;;;;;5025520;28;19940;-63
2022/01/15 08:40:20;;;;;;;;;;;2.10;99.90;;;;;;5023119;28;20667;-64
2022/01/15 08:42:46;;;;;;;;;;;2.10;99.90;;;;;;5024349;28;19963;-65
2022/01/15 08:45:12;;;;;;;;;;;2.20;99.90;;;;;;5023598;28;19975;-66
2022/01/15 08:47:38;;;;;;;;;;;2.20;99.90;;;;;;5022787;28;19967;-64
2022/01/15 08:50:05;;;;;;;;;;;2.20;99.90;;;;;;5025936;28;19959;-63
2022/01/15 08:52:30;;;;;;;;;;;2.30;99.90;;;;;;5022697;28;19913;-65
2022/01/15 08:54:57;;;;;;;;;;;2.30;99.90;;;;;;5021482;28;19917;-64
2022/01/15 08:57:22;;;;;;;;;;;2.30;99.90;;;;;;5023691;28;19917;-66
2022/01/15 08:59:48;;;;;;;;;;;2.30;99.90;;;;;;5022884;28;20040;-66
2022/01/15 09:02:13;;;;;;;;;;;2.30;99.90;;;;;;5020270;28;19914;-64
2022/01/15 09:04:39;;;;;;;;;;;2.40;99.90;;;;;;5024912;28;19925;-63
2022/01/15 09:07:04;;;;;;;;;;;2.40;99.90;;;;;;5021970;28;19913;-64
2022/01/15 09:09:30;;;;;;;;;;;2.40;99.90;;;;;;5022537;28;19921;-66
2022/01/15 09:11:56;;;;;;;;;;;2.50;99.90;;;;;;5022003;28;19917;-65
2022/01/15 09:14:21;;;;;;;;;;;2.50;99.90;;;;;;5024683;28;20459;-64
2022/01/15 09:16:47;;;;;;;;;;;2.60;99.90;;;;;;5023842;28;19921;-64
2022/01/15 09:19:12;;;;;;;;;;;2.60;99.90;;;;;;5025843;28;20019;-65
2022/01/15 09:21:38;;;;;;;;;;;2.60;99.90;;;;;;5020195;28;20293;-64
2022/01/15 09:24:03;;;;;;;;;;;2.70;99.90;;;;;;5021778;28;19925;-64
2022/01/15 09:31:58;;;;;;;;;;;2.90;99.90;;;;;;5023054;28;19924;-64
2022/01/15 09:34:23;;;;;;;;;;;2.90;99.90;;;;;;5024981;28;19917;-63
2022/01/15 09:36:49;;;;;;;;;;;2.90;99.90;;;;;;5021381;28;19921;-63
2022/01/15 09:39:14;;;;;;;;;;;3.00;99.90;;;;;;5022301;28;19913;-66
2022/01/15 09:41:43;;;;;;;;;;;3.00;99.90;;;;;;5022405;28;19957;-64
2022/01/15 09:44:09;;;;;;;;;;;3.10;99.90;;;;;;5024472;28;19970;-64
2022/01/15 09:46:36;;;;;;;;;;;3.10;99.90;;;;;;5022605;28;19999;-62
2022/01/15 09:49:02;;;;;;;;;;;3.10;99.90;;;;;;5021152;28;20397;-64
2022/01/15 09:51:29;;;;;;;;;;;3.20;99.90;;;;;;5021436;28;19949;-64
2022/01/15 09:53:54;;;;;;;;;;;3.30;99.90;;;;;;5020834;28;19920;-65
2022/01/15 09:56:20;;;;;;;;;;;3.30;99.90;;;;;;5023854;28;19917;-64
2022/01/15 09:58:46;;;;;;;;;;;3.30;99.90;;;;;;5023121;28;19920;-62
2022/01/15 10:01:11;;;;;;;;;;;3.40;99.90;;;;;;5021711;28;19917;-65
2022/01/15 10:03:37;;;;;;;;;;;3.50;99.90;;;;;;5021147;28;19932;-65
2022/01/15 10:06:03;;;;;;;;;;;3.50;99.90;;;;;;5020202;28;20390;-65
2022/01/15 10:08:28;;;;;;;;;;;3.50;99.90;;;;;;5022965;28;19909;-65
2022/01/15 10:10:57;;;;;;;;;;;3.60;99.90;;;;;;5023824;28;19947;-63
2022/01/15 10:13:24;;;;;;;;;;;3.70;99.90;;;;;;5022045;28;19917;-64
2022/01/15 10:15:50;;;;;;;;;;;3.70;99.90;;;;;;5019425;28;19921;-64
2022/01/15 10:18:25;;;;;;;;;;;3.80;99.90;;;;;;5028064;28;19929;-64
2022/01/15 10:20:52;;;;;;;;;;;3.80;99.90;;;;;;5019884;28;19987;-64
2022/01/15 10:23:18;;;;;;;;;;;3.90;99.90;;;;;;5023861;28;20003;-65
2022/01/15 10:25:44;;;;;;;;;;;3.90;99.90;;;;;;5022754;28;19979;-65
2022/01/15 10:28:09;;;;;;;;;;;4.00;99.90;;;;;;5023393;28;19917;-63
2022/01/15 10:30:35;;;;;;;;;;;4.00;99.90;;;;;;5021289;28;22130;-65
2022/01/15 10:33:02;;;;;;;;;;;4.00;99.90;;;;;;5003102;28;19915;-64
2022/01/15 10:35:32;;;;;;;;;;;4.10;99.90;;;;;;5023026;28;19921;-65
2022/01/15 10:37:59;;;;;;;;;;;4.10;99.90;;;;;;5023536;28;19920;-65
2022/01/15 10:40:33;;;;;;;;;;;4.20;99.90;;;;;;5021230;28;19917;-64
2022/01/15 10:42:59;;;;;;;;;;;4.20;99.90;;;;;;5020082;28;20044;-64
2022/01/15 10:45:26;;;;;;;;;;;4.30;99.90;;;;;;5021696;28;19917;-65
2022/01/15 10:47:55;;;;;;;;;;;4.30;99.90;;;;;;5019846;28;19983;-63
2022/01/15 10:50:28;;;;;;;;;;;4.40;99.90;;;;;;5025384;28;19920;-63
2022/01/15 10:52:54;;;;;;;;;;;4.40;99.90;;;;;;5023214;28;19928;-63
2022/01/15 10:55:24;;;;;;;;;;;4.40;99.90;;;;;;5021057;28;19959;-63
2022/01/15 10:57:55;;;;;;;;;;;4.40;99.90;;;;;;5019197;28;19925;-63
2022/01/15 11:00:22;;;;;;;;;;;4.50;99.90;;;;;;5020622;28;19914;-64
2022/01/15 11:02:50;;;;;;;;;;;4.50;99.90;;;;;;5019929;28;19922;-65
2022/01/15 11:05:20;;;;;;;;;;;4.60;99.90;;;;;;5023457;28;19924;-64
2022/01/15 11:07:45;;;;;;;;;;;4.60;99.90;;;;;;5021360;28;19921;-64
2022/01/15 11:10:11;;;;;;;;;;;4.70;99.90;;;;;;5020802;28;19914;-65
2022/01/15 11:12:36;;;;;;;;;;;4.70;99.90;;;;;;5019711;28;19946;-66
2022/01/15 11:15:02;;;;;;;;;;;4.80;99.90;;;;;;5019772;28;19914;-65
2022/01/15 11:17:28;;;;;;;;;;;4.80;99.90;;;;;;5032221;28;19982;-66
2022/01/15 11:19:54;;;;;;;;;;;4.90;99.90;;;;;;5027101;28;19960;-65
2022/01/15 11:22:23;;;;;;;;;;;4.90;99.90;;;;;;5024602;28;20051;-66
2022/01/15 11:24:50;;;;;;;;;;;4.90;99.90;;;;;;5022852;28;19921;-64
2022/01/15 11:27:16;;;;;;;;;;;4.90;99.90;;;;;;5024359;28;19983;-66
2022/01/15 11:29:42;;;;;;;;;;;4.90;99.90;;;;;;5023378;28;20393;-65
2022/01/15 11:32:09;;;;;;;;;;;5.00;99.90;;;;;;5027009;28;19921;-63
2022/01/15 11:34:34;;;;;;;;;;;5.10;99.90;;;;;;5024919;28;19957;-66
2022/01/15 11:37:13;;;;;;;;;;;5.10;99.90;;;;;;5023366;28;19956;-63
2022/01/15 11:39:39;;;;;;;;;;;5.10;99.90;;;;;;5023544;28;19917;-68
2022/01/15 11:42:05;;;;;;;;;;;5.20;99.90;;;;;;5023144;28;19921;-64
2022/01/15 11:44:35;;;;;;;;;;;5.20;99.90;;;;;;5023338;28;20477;-63
2022/01/15 11:47:15;;;;;;;;;;;5.20;99.90;;;;;;5026020;28;19917;-66
2022/01/15 11:49:45;;;;;;;;;;;5.30;99.90;;;;;;5026597;28;19913;-62
2022/01/15 11:52:14;;;;;;;;;;;5.30;99.90;;;;;;5025985;28;19932;-61
2022/01/15 11:54:49;;;;;;;;;;;5.40;99.90;;;;;;5023301;28;19929;-64
2022/01/15 11:57:21;;;;;;;;;;;5.40;99.90;;;;;;5025792;28;20332;-63
2022/01/15 11:59:47;;;;;;;;;;;5.40;99.90;;;;;;5027560;28;20293;-66
2022/01/15 12:02:29;;;;;;;;;;;5.50;99.90;;;;;;5016586;28;20447;-64
2022/01/15 12:05:15;;;;;;;;;;;5.50;99.90;;;;;;5026663;28;19956;-64
2022/01/15 12:07:41;;;;;;;;;;;5.50;99.90;;;;;;5023773;28;20334;-64
2022/01/15 12:10:10;;;;;;;;;;;5.50;99.90;;;;;;5021975;28;20091;-65
2022/01/15 12:12:44;;;;;;;;;;;5.50;99.90;;;;;;5022527;28;19913;-61
2022/01/15 12:15:11;;;;;;;;;;;5.60;99.90;;;;;;5022920;28;19917;-65
2022/01/15 12:17:59;;;;;;;;;;;5.60;99.90;;;;;;5030454;28;19986;-66
2022/01/15 12:20:26;;;;;;;;;;;5.60;99.90;;;;;;5022716;28;19913;-64
2022/01/15 12:22:55;;;;;;;;;;;5.60;99.90;;;;;;5025265;28;19924;-65
2022/01/15 12:25:21;;;;;;;;;;;5.60;99.90;;;;;;5022730;28;19920;-65
2022/01/15 12:27:47;;;;;;;;;;;5.60;99.90;;;;;;5018966;28;19913;-62
2022/01/15 12:30:17;;;;;;;;;;;5.70;99.90;;;;;;5023244;28;20317;-63
2022/01/15 12:32:44;;;;;;;;;;;5.70;99.90;;;;;;5008067;28;19913;-63
2022/01/15 12:35:15;;;;;;;;;;;5.80;99.90;;;;;;5025571;28;20030;-65
2022/01/15 12:37:52;;;;;;;;;;;5.80;99.90;;;;;;5024234;28;20427;-63
2022/01/15 12:40:20;;;;;;;;;;;5.80;99.90;;;;;;5025699;28;19913;-64
2022/01/15 12:42:53;;;;;;;;;;;5.90;99.90;;;;;;5022110;28;20499;-64
2022/01/15 12:45:19;;;;;;;;;;;5.90;99.90;;;;;;5025242;28;20043;-64
2022/01/15 12:47:47;;;;;;;;;;;6.00;99.90;;;;;;5027650;28;20372;-63
2022/01/15 12:50:13;;;;;;;;;;;6.00;99.90;;;;;;5025209;28;19917;-65
2022/01/15 12:52:39;;;;;;;;;;;6.00;99.90;;;;;;5026758;28;19947;-64
2022/01/15 12:55:05;;;;;;;;;;;6.00;99.90;;;;;;5022074;28;20008;-63
2022/01/15 12:57:36;;;;;;;;;;;6.10;99.90;;;;;;5022809;28;20066;-65
2022/01/15 13:00:10;;;;;;;;;;;6.10;99.90;;;;;;5022386;28;19951;-63
2022/01/15 13:02:35;;;;;;;;;;;6.10;99.90;;;;;;5023298;28;20059;-62
2022/01/15 13:05:01;;;;;;;;;;;6.10;99.90;;;;;;5022394;28;20020;-65
2022/01/15 13:07:27;;;;;;;;;;;6.20;99.90;;;;;;5021944;28;19917;-65
2022/01/15 13:09:52;;;;;;;;;;;6.20;99.90;;;;;;5021025;28;19925;-63
2022/01/15 13:12:18;;;;;;;;;;;6.30;99.90;;;;;;5023849;28;19914;-63
2022/01/15 13:14:43;;;;;;;;;;;6.30;99.90;;;;;;5024630;28;19921;-62
2022/01/15 13:17:19;;;;;;;;;;;6.30;99.90;;;;;;5025496;28;19913;-64
2022/01/15 13:19:45;;;;;;;;;;;6.40;99.90;;;;;;5022899;28;19920;-64
2022/01/15 13:22:11;;;;;;;;;;;6.40;99.90;;;;;;5021740;28;20389;-62
2022/01/15 13:24:36;;;;;;;;;;;6.40;99.90;;;;;;5021413;28;19921;-66
2022/01/15 13:27:03;;;;;;;;;;;6.40;99.90;;;;;;5019368;28;19917;-64
2022/01/15 13:29:37;;;;;;;;;;;6.40;99.90;;;;;;5022614;28;19909;-63
2022/01/15 13:32:02;;;;;;;;;;;6.40;99.90;;;;;;5024909;28;19920;-65
2022/01/15 13:34:33;;;;;;;;;;;6.40;99.90;;;;;;5022137;28;19913;-64
2022/01/15 13:37:06;;;;;;;;;;;6.50;99.90;;;;;;5020023;28;19932;-65
2022/01/15 13:39:33;;;;;;;;;;;6.50;99.90;;;;;;5005998;28;19921;-65
2022/01/15 13:41:58;;;;;;;;;;;6.50;99.90;;;;;;5020396;28;19917;-67
2022/01/15 13:44:24;;;;;;;;;;;6.50;99.90;;;;;;5024218;28;20273;-65
2022/01/15 13:46:50;;;;;;;;;;;6.50;99.90;;;;;;5022771;28;19917;-63
2022/01/15 13:49:19;;;;;;;;;;;6.50;99.90;;;;;;5024270;28;20769;-66
2022/01/15 13:54:30;;;;;;;;;;;6.60;99.90;;;;;;5022441;28;20046;-66
2022/01/15 13:57:02;;;;;;;;;;;6.60;99.90;;;;;;5019887;28;20000;-66
2022/01/15 13:59:28;;;;;;;;;;;6.60;99.90;;;;;;5023168;28;19914;-67
2022/01/15 14:01:59;;;;;;;;;;;6.60;99.90;;;;;;5023261;28;19917;-66
2022/01/15 14:04:25;;;;;;;;;;;6.60;99.90;;;;;;5021438;28;19925;-64
2022/01/15 14:07:01;;;;;;;;;;;6.60;99.90;;;;;;5019813;28;19928;-66
2022/01/15 14:09:28;;;;;;;;;;;6.60;99.90;;;;;;5021380;28;20080;-64
2022/01/15 14:12:13;;;;;;;;;;;6.60;99.90;;;;;;5019719;28;19924;-66
2022/01/15 14:14:53;;;;;;;;;;;6.60;99.90;;;;;;5022097;28;19917;-65
2022/01/15 14:17:19;;;;;;;;;;;6.60;99.90;;;;;;5025669;28;20117;-64
2022/01/15 14:22:24;;;;;;;;;;;6.70;99.90;;;;;;5024235;28;19963;-64
2022/01/15 14:24:50;;;;;;;;;;;6.80;99.90;;;;;;5021422;28;19921;-62
2022/01/15 14:27:20;;;;;;;;;;;6.80;99.90;;;;;;5021965;28;19964;-63
2022/01/15 14:29:46;;;;;;;;;;;6.80;99.90;;;;;;5019575;28;19913;-65
2022/01/15 14:32:12;;;;;;;;;;;6.80;99.90;;;;;;5021727;28;19913;-64
2022/01/15 14:34:37;;;;;;;;;;;6.80;99.90;;;;;;5019296;28;19921;-63
2022/01/15 14:37:03;;;;;;;;;;;6.90;99.90;;;;;;5017607;28;19913;-67
2022/01/15 14:39:28;;;;;;;;;;;6.90;99.90;;;;;;5018913;28;20516;-66
2022/01/15 14:41:54;;;;;;;;;;;6.90;99.90;;;;;;5019867;28;19944;-64
2022/01/15 14:44:19;;;;;;;;;;;6.90;99.90;;;;;;5021109;28;19951;-63
2022/01/15 14:46:45;;;;;;;;;;;6.90;99.90;;;;;;5018453;28;19913;-63
2022/01/15 14:49:10;;;;;;;;;;;6.90;99.90;;;;;;5017775;28;20445;-63
2022/01/15 14:51:36;;;;;;;;;;;6.90;99.90;;;;;;5018214;28;19924;-62
2022/01/15 14:54:02;;;;;;;;;;;7.00;99.90;;;;;;5019142;28;20048;-64
2022/01/15 14:56:27;;;;;;;;;;;7.00;99.90;;;;;;5020753;28;19913;-65
2022/01/15 14:58:53;;;;;;;;;;;7.00;99.90;;;;;;5020251;28;20375;-65
2022/01/15 15:01:19;;;;;;;;;;;7.00;99.90;;;;;;5018914;28;19913;-65
2022/01/15 15:03:45;;;;;;;;;;;7.00;99.90;;;;;;5016578;28;20381;-64
2022/01/15 15:06:11;;;;;;;;;;;7.00;99.90;;;;;;5019277;28;19913;-64